sensor_id;sensor_type;location;lat;lon;timestamp;P1;durP1;ratioP1;P2;durP2;ratioP2
4202;SDS011;2115;51.038;7.006;2023-02-10T00:01:56;244.40;;;82.73;;
4202;SDS011;2115;51.038;7.006;2023-02-10T00:04:21;237.63;;;81.57;;
4202;SDS011;2115;51.038;7.006;2023-02-10T00:06:47;108.67;;;39.70;;
4202;SDS011;2115;51.038;7.006;2023-02-10T00:09:13;54.47;;;22.47;;
4202;SDS011;2115;51.038;7.006;2023-02-10T00:11:39;38.27;;;14.30;;
4202;SDS011;2115;51.038;7.006;2023-02-10T00:14:25;122.53;;;42.60;;
4202;SDS011;2115;51.038;7.006;2023-02-10T00:16:51;108.10;;;38.10;;
4202;SDS011;2115;51.038;7.006;2023-02-10T00:19:17;109.33;;;37.53;;
4202;SDS011;2115;51.038;7.006;2023-02-10T00:21:43;276.93;;;92.57;;
4202;SDS011;2115;51.038;7.006;2023-02-10T00:24:09;276.50;;;94.63;;
4202;SDS011;2115;51.038;7.006;2023-02-10T00:26:34;114.87;;;39.13;;
4202;SDS011;2115;51.038;7.006;2023-02-10T00:29:00;114.93;;;41.03;;
4202;SDS011;2115;51.038;7.006;2023-02-10T00:31:25;119.53;;;41.50;;
4202;SDS011;2115;51.038;7.006;2023-02-10T00:33:50;109.00;;;38.93;;
4202;SDS011;2115;51.038;7.006;2023-02-10T00:36:16;118.00;;;41.60;;
4202;SDS011;2115;51.038;7.006;2023-02-10T00:38:42;107.63;;;35.37;;
4202;SDS011;2115;51.038;7.006;2023-02-10T00:43:34;241.70;;;81.27;;
4202;SDS011;2115;51.038;7.006;2023-02-10T00:46:01;182.30;;;64.37;;
4202;SDS011;2115;51.038;7.006;2023-02-10T00:48:27;266.20;;;86.50;;
4202;SDS011;2115;51.038;7.006;2023-02-10T00:50:52;125.73;;;41.90;;
4202;SDS011;2115;51.038;7.006;2023-02-10T00:53:17;325.13;;;110.87;;
4202;SDS011;2115;51.038;7.006;2023-02-10T00:55:43;103.73;;;36.17;;
4202;SDS011;2115;51.038;7.006;2023-02-10T00:58:08;339.37;;;114.60;;
4202;SDS011;2115;51.038;7.006;2023-02-10T01:00:34;336.03;;;110.27;;
4202;SDS011;2115;51.038;7.006;2023-02-10T01:02:59;339.47;;;114.93;;
4202;SDS011;2115;51.038;7.006;2023-02-10T01:05:24;125.97;;;40.83;;
4202;SDS011;2115;51.038;7.006;2023-02-10T01:07:50;343.30;;;117.50;;
4202;SDS011;2115;51.038;7.006;2023-02-10T01:10:17;141.13;;;48.53;;
4202;SDS011;2115;51.038;7.006;2023-02-10T01:12:43;346.27;;;116.40;;
4202;SDS011;2115;51.038;7.006;2023-02-10T01:15:08;331.97;;;110.27;;
4202;SDS011;2115;51.038;7.006;2023-02-10T01:17:34;347.10;;;116.50;;
4202;SDS011;2115;51.038;7.006;2023-02-10T01:19:59;347.03;;;116.87;;
4202;SDS011;2115;51.038;7.006;2023-02-10T01:22:24;127.07;;;43.40;;
4202;SDS011;2115;51.038;7.006;2023-02-10T01:24:50;123.80;;;40.33;;
4202;SDS011;2115;51.038;7.006;2023-02-10T01:27:15;127.57;;;44.77;;
4202;SDS011;2115;51.038;7.006;2023-02-10T01:29:40;332.37;;;111.77;;
4202;SDS011;2115;51.038;7.006;2023-02-10T01:32:06;236.43;;;79.73;;
4202;SDS011;2115;51.038;7.006;2023-02-10T01:34:31;143.37;;;46.70;;
4202;SDS011;2115;51.038;7.006;2023-02-10T01:36:57;238.13;;;82.53;;
4202;SDS011;2115;51.038;7.006;2023-02-10T01:39:22;323.93;;;109.47;;
4202;SDS011;2115;51.038;7.006;2023-02-10T01:41:47;127.40;;;43.40;;
4202;SDS011;2115;51.038;7.006;2023-02-10T01:46:45;336.23;;;115.50;;
4202;SDS011;2115;51.038;7.006;2023-02-10T01:49:12;268.97;;;88.07;;
4202;SDS011;2115;51.038;7.006;2023-02-10T01:54:11;249.90;;;85.00;;
4202;SDS011;2115;51.038;7.006;2023-02-10T01:56:39;278.73;;;93.07;;
4202;SDS011;2115;51.038;7.006;2023-02-10T01:59:05;126.37;;;42.83;;
4202;SDS011;2115;51.038;7.006;2023-02-10T02:01:31;262.13;;;88.67;;
4202;SDS011;2115;51.038;7.006;2023-02-10T02:03:56;111.67;;;38.03;;
4202;SDS011;2115;51.038;7.006;2023-02-10T02:06:22;321.87;;;108.37;;
4202;SDS011;2115;51.038;7.006;2023-02-10T02:08:47;265.47;;;89.80;;
4202;SDS011;2115;51.038;7.006;2023-02-10T02:16:42;223.53;;;78.93;;
4202;SDS011;2115;51.038;7.006;2023-02-10T02:24:58;310.07;;;94.43;;
4202;SDS011;2115;51.038;7.006;2023-02-10T02:36:04;328.63;;;109.80;;
4202;SDS011;2115;51.038;7.006;2023-02-10T02:38:41;340.73;;;116.90;;
4202;SDS011;2115;51.038;7.006;2023-02-10T02:41:08;283.90;;;97.43;;
4202;SDS011;2115;51.038;7.006;2023-02-10T02:43:34;268.07;;;90.93;;
4202;SDS011;2115;51.038;7.006;2023-02-10T02:48:49;343.17;;;117.57;;
4202;SDS011;2115;51.038;7.006;2023-02-10T02:51:42;289.20;;;97.10;;
4202;SDS011;2115;51.038;7.006;2023-02-10T02:56:47;92.63;;;33.00;;
4202;SDS011;2115;51.038;7.006;2023-02-10T02:59:21;118.97;;;41.07;;
4202;SDS011;2115;51.038;7.006;2023-02-10T03:02:00;120.93;;;38.47;;
4202;SDS011;2115;51.038;7.006;2023-02-10T03:04:29;35.70;;;14.43;;
4202;SDS011;2115;51.038;7.006;2023-02-10T03:06:57;164.63;;;56.80;;
4202;SDS011;2115;51.038;7.006;2023-02-10T03:09:22;322.70;;;110.80;;
4202;SDS011;2115;51.038;7.006;2023-02-10T03:11:48;43.50;;;17.50;;
4202;SDS011;2115;51.038;7.006;2023-02-10T03:14:13;94.07;;;30.33;;
4202;SDS011;2115;51.038;7.006;2023-02-10T03:16:39;119.83;;;40.37;;
4202;SDS011;2115;51.038;7.006;2023-02-10T03:19:05;311.83;;;108.07;;
4202;SDS011;2115;51.038;7.006;2023-02-10T03:21:30;285.23;;;100.83;;
4202;SDS011;2115;51.038;7.006;2023-02-10T03:23:55;308.40;;;106.20;;
4202;SDS011;2115;51.038;7.006;2023-02-10T03:26:21;10.60;;;5.10;;
4202;SDS011;2115;51.038;7.006;2023-02-10T03:28:46;31.90;;;13.27;;
4202;SDS011;2115;51.038;7.006;2023-02-10T03:31:11;99.67;;;36.47;;
4202;SDS011;2115;51.038;7.006;2023-02-10T03:33:37;19.70;;;6.43;;
4202;SDS011;2115;51.038;7.006;2023-02-10T03:36:02;131.20;;;44.40;;
4202;SDS011;2115;51.038;7.006;2023-02-10T03:38:28;113.23;;;38.33;;
4202;SDS011;2115;51.038;7.006;2023-02-10T03:40:54;204.97;;;68.50;;
4202;SDS011;2115;51.038;7.006;2023-02-10T03:43:19;246.20;;;82.90;;
4202;SDS011;2115;51.038;7.006;2023-02-10T03:45:46;156.20;;;47.77;;
4202;SDS011;2115;51.038;7.006;2023-02-10T03:48:12;318.00;;;108.33;;
4202;SDS011;2115;51.038;7.006;2023-02-10T03:50:37;319.60;;;108.27;;
4202;SDS011;2115;51.038;7.006;2023-02-10T03:53:03;112.83;;;37.60;;
4202;SDS011;2115;51.038;7.006;2023-02-10T03:55:29;12.07;;;8.33;;
4202;SDS011;2115;51.038;7.006;2023-02-10T03:57:55;192.90;;;66.40;;
4202;SDS011;2115;51.038;7.006;2023-02-10T04:00:20;181.87;;;63.43;;
4202;SDS011;2115;51.038;7.006;2023-02-10T04:02:46;267.93;;;91.43;;
4202;SDS011;2115;51.038;7.006;2023-02-10T04:05:12;110.90;;;38.73;;
4202;SDS011;2115;51.038;7.006;2023-02-10T04:07:37;234.70;;;79.27;;
4202;SDS011;2115;51.038;7.006;2023-02-10T04:10:03;230.53;;;81.67;;
4202;SDS011;2115;51.038;7.006;2023-02-10T04:12:30;98.97;;;34.60;;
4202;SDS011;2115;51.038;7.006;2023-02-10T04:14:56;111.83;;;39.60;;
4202;SDS011;2115;51.038;7.006;2023-02-10T04:17:22;26.33;;;11.03;;
4202;SDS011;2115;51.038;7.006;2023-02-10T04:19:47;121.63;;;44.10;;
4202;SDS011;2115;51.038;7.006;2023-02-10T04:22:13;27.87;;;9.70;;
4202;SDS011;2115;51.038;7.006;2023-02-10T04:24:38;13.10;;;5.40;;
4202;SDS011;2115;51.038;7.006;2023-02-10T04:27:03;259.83;;;90.50;;
4202;SDS011;2115;51.038;7.006;2023-02-10T04:29:29;112.20;;;40.97;;
4202;SDS011;2115;51.038;7.006;2023-02-10T04:31:54;259.77;;;90.40;;
4202;SDS011;2115;51.038;7.006;2023-02-10T04:34:20;46.90;;;18.93;;
4202;SDS011;2115;51.038;7.006;2023-02-10T04:36:45;110.50;;;39.83;;
4202;SDS011;2115;51.038;7.006;2023-02-10T04:39:10;112.07;;;40.47;;
4202;SDS011;2115;51.038;7.006;2023-02-10T04:41:36;113.63;;;43.87;;
4202;SDS011;2115;51.038;7.006;2023-02-10T04:44:01;221.13;;;82.27;;
4202;SDS011;2115;51.038;7.006;2023-02-10T04:46:26;54.13;;;19.43;;
4202;SDS011;2115;51.038;7.006;2023-02-10T04:48:52;222.13;;;90.97;;
4202;SDS011;2115;51.038;7.006;2023-02-10T04:51:18;217.37;;;78.47;;
4202;SDS011;2115;51.038;7.006;2023-02-10T04:53:43;251.80;;;94.63;;
4202;SDS011;2115;51.038;7.006;2023-02-10T04:56:09;249.80;;;98.57;;
4202;SDS011;2115;51.038;7.006;2023-02-10T04:58:34;41.13;;;17.57;;
4202;SDS011;2115;51.038;7.006;2023-02-10T05:01:00;116.37;;;40.97;;
4202;SDS011;2115;51.038;7.006;2023-02-10T05:03:25;122.67;;;55.67;;
4202;SDS011;2115;51.038;7.006;2023-02-10T05:05:51;267.80;;;99.93;;
4202;SDS011;2115;51.038;7.006;2023-02-10T05:08:19;202.30;;;78.77;;
4202;SDS011;2115;51.038;7.006;2023-02-10T05:10:47;253.70;;;111.67;;
4202;SDS011;2115;51.038;7.006;2023-02-10T05:13:13;109.97;;;42.33;;
4202;SDS011;2115;51.038;7.006;2023-02-10T05:15:38;273.50;;;118.33;;
4202;SDS011;2115;51.038;7.006;2023-02-10T05:18:04;217.83;;;87.37;;
4202;SDS011;2115;51.038;7.006;2023-02-10T05:20:29;120.77;;;48.90;;
4202;SDS011;2115;51.038;7.006;2023-02-10T05:22:55;214.87;;;82.43;;
4202;SDS011;2115;51.038;7.006;2023-02-10T05:25:20;259.83;;;103.20;;
4202;SDS011;2115;51.038;7.006;2023-02-10T05:27:46;208.63;;;84.87;;
4202;SDS011;2115;51.038;7.006;2023-02-10T05:30:11;106.93;;;42.60;;
4202;SDS011;2115;51.038;7.006;2023-02-10T05:32:38;84.57;;;34.87;;
4202;SDS011;2115;51.038;7.006;2023-02-10T05:35:04;100.17;;;41.10;;
4202;SDS011;2115;51.038;7.006;2023-02-10T05:37:29;52.57;;;22.60;;
4202;SDS011;2115;51.038;7.006;2023-02-10T05:39:55;15.33;;;7.00;;
4202;SDS011;2115;51.038;7.006;2023-02-10T05:42:20;100.57;;;39.93;;
4202;SDS011;2115;51.038;7.006;2023-02-10T05:44:46;76.97;;;29.20;;
4202;SDS011;2115;51.038;7.006;2023-02-10T05:47:11;191.07;;;77.23;;
4202;SDS011;2115;51.038;7.006;2023-02-10T05:49:36;102.13;;;40.63;;
4202;SDS011;2115;51.038;7.006;2023-02-10T05:52:02;92.93;;;37.83;;
4202;SDS011;2115;51.038;7.006;2023-02-10T05:54:27;213.37;;;86.00;;
4202;SDS011;2115;51.038;7.006;2023-02-10T05:56:53;142.47;;;44.57;;
4202;SDS011;2115;51.038;7.006;2023-02-10T05:59:18;136.67;;;38.90;;
4202;SDS011;2115;51.038;7.006;2023-02-10T06:01:44;174.37;;;51.43;;
4202;SDS011;2115;51.038;7.006;2023-02-10T06:04:09;181.20;;;49.63;;
4202;SDS011;2115;51.038;7.006;2023-02-10T06:06:35;149.73;;;42.87;;
4202;SDS011;2115;51.038;7.006;2023-02-10T06:09:00;142.23;;;41.90;;
4202;SDS011;2115;51.038;7.006;2023-02-10T06:11:25;164.53;;;46.83;;
4202;SDS011;2115;51.038;7.006;2023-02-10T06:13:51;153.77;;;44.73;;
4202;SDS011;2115;51.038;7.006;2023-02-10T06:16:16;169.70;;;46.37;;
4202;SDS011;2115;51.038;7.006;2023-02-10T06:18:42;144.43;;;40.80;;
4202;SDS011;2115;51.038;7.006;2023-02-10T06:21:07;161.77;;;45.13;;
4202;SDS011;2115;51.038;7.006;2023-02-10T06:23:33;140.77;;;43.00;;
4202;SDS011;2115;51.038;7.006;2023-02-10T06:25:59;147.10;;;44.37;;
4202;SDS011;2115;51.038;7.006;2023-02-10T06:28:25;31.13;;;14.13;;
4202;SDS011;2115;51.038;7.006;2023-02-10T06:30:50;45.27;;;20.60;;
4202;SDS011;2115;51.038;7.006;2023-02-10T06:33:16;50.33;;;21.93;;
4202;SDS011;2115;51.038;7.006;2023-02-10T06:35:41;110.87;;;46.97;;
4202;SDS011;2115;51.038;7.006;2023-02-10T06:38:07;75.83;;;29.97;;
4202;SDS011;2115;51.038;7.006;2023-02-10T06:40:34;56.07;;;26.00;;
4202;SDS011;2115;51.038;7.006;2023-02-10T06:42:59;12.57;;;4.53;;
4202;SDS011;2115;51.038;7.006;2023-02-10T06:45:26;43.07;;;13.67;;
4202;SDS011;2115;51.038;7.006;2023-02-10T06:47:52;16.40;;;7.13;;
4202;SDS011;2115;51.038;7.006;2023-02-10T06:50:17;200.83;;;79.63;;
4202;SDS011;2115;51.038;7.006;2023-02-10T06:52:43;8.53;;;4.70;;
4202;SDS011;2115;51.038;7.006;2023-02-10T06:55:08;93.87;;;38.00;;
4202;SDS011;2115;51.038;7.006;2023-02-10T06:57:37;68.27;;;29.97;;
4202;SDS011;2115;51.038;7.006;2023-02-10T07:00:03;103.33;;;42.93;;
4202;SDS011;2115;51.038;7.006;2023-02-10T07:02:30;285.10;;;111.07;;
4202;SDS011;2115;51.038;7.006;2023-02-10T07:04:55;31.43;;;11.67;;
4202;SDS011;2115;51.038;7.006;2023-02-10T07:07:20;206.53;;;81.90;;
4202;SDS011;2115;51.038;7.006;2023-02-10T07:09:46;222.33;;;87.77;;
4202;SDS011;2115;51.038;7.006;2023-02-10T07:12:11;100.27;;;40.27;;
4202;SDS011;2115;51.038;7.006;2023-02-10T07:14:37;232.77;;;83.80;;
4202;SDS011;2115;51.038;7.006;2023-02-10T07:17:03;256.13;;;96.33;;
4202;SDS011;2115;51.038;7.006;2023-02-10T07:19:29;76.13;;;28.37;;
4202;SDS011;2115;51.038;7.006;2023-02-10T07:21:55;82.20;;;24.40;;
4202;SDS011;2115;51.038;7.006;2023-02-10T07:24:21;177.17;;;50.03;;
4202;SDS011;2115;51.038;7.006;2023-02-10T07:26:46;172.40;;;48.27;;
4202;SDS011;2115;51.038;7.006;2023-02-10T07:29:11;159.90;;;44.80;;
4202;SDS011;2115;51.038;7.006;2023-02-10T07:31:37;153.23;;;42.23;;
4202;SDS011;2115;51.038;7.006;2023-02-10T07:34:02;175.00;;;52.40;;
4202;SDS011;2115;51.038;7.006;2023-02-10T07:36:28;140.47;;;40.17;;
4202;SDS011;2115;51.038;7.006;2023-02-10T07:38:53;141.23;;;45.77;;
4202;SDS011;2115;51.038;7.006;2023-02-10T07:41:19;122.53;;;37.83;;
4202;SDS011;2115;51.038;7.006;2023-02-10T07:43:44;144.13;;;40.90;;
4202;SDS011;2115;51.038;7.006;2023-02-10T07:46:10;147.43;;;44.30;;
4202;SDS011;2115;51.038;7.006;2023-02-10T07:48:35;133.97;;;40.73;;
4202;SDS011;2115;51.038;7.006;2023-02-10T07:51:00;144.97;;;44.43;;
4202;SDS011;2115;51.038;7.006;2023-02-10T07:53:26;148.27;;;45.03;;
4202;SDS011;2115;51.038;7.006;2023-02-10T07:55:51;151.13;;;45.20;;
4202;SDS011;2115;51.038;7.006;2023-02-10T07:58:16;152.57;;;45.83;;
4202;SDS011;2115;51.038;7.006;2023-02-10T08:00:42;152.00;;;45.60;;
4202;SDS011;2115;51.038;7.006;2023-02-10T08:03:10;151.70;;;47.23;;
4202;SDS011;2115;51.038;7.006;2023-02-10T08:05:37;144.60;;;45.27;;
4202;SDS011;2115;51.038;7.006;2023-02-10T08:08:02;147.47;;;44.20;;
4202;SDS011;2115;51.038;7.006;2023-02-10T08:10:28;152.70;;;45.83;;
4202;SDS011;2115;51.038;7.006;2023-02-10T08:12:54;155.43;;;46.43;;
4202;SDS011;2115;51.038;7.006;2023-02-10T08:15:20;140.87;;;44.10;;
4202;SDS011;2115;51.038;7.006;2023-02-10T08:17:47;120.47;;;46.73;;
4202;SDS011;2115;51.038;7.006;2023-02-10T08:20:13;134.33;;;43.57;;
4202;SDS011;2115;51.038;7.006;2023-02-10T08:22:38;134.33;;;43.63;;
4202;SDS011;2115;51.038;7.006;2023-02-10T08:25:03;128.63;;;43.70;;
4202;SDS011;2115;51.038;7.006;2023-02-10T08:27:29;134.10;;;43.20;;
4202;SDS011;2115;51.038;7.006;2023-02-10T08:29:55;131.73;;;45.40;;
4202;SDS011;2115;51.038;7.006;2023-02-10T08:32:21;120.00;;;41.63;;
4202;SDS011;2115;51.038;7.006;2023-02-10T08:34:49;139.90;;;43.43;;
4202;SDS011;2115;51.038;7.006;2023-02-10T08:37:15;110.63;;;40.33;;
4202;SDS011;2115;51.038;7.006;2023-02-10T08:39:41;95.30;;;34.67;;
4202;SDS011;2115;51.038;7.006;2023-02-10T08:42:07;108.03;;;40.73;;
4202;SDS011;2115;51.038;7.006;2023-02-10T08:44:33;90.13;;;32.37;;
4202;SDS011;2115;51.038;7.006;2023-02-10T08:46:59;115.27;;;40.30;;
4202;SDS011;2115;51.038;7.006;2023-02-10T08:49:25;268.97;;;88.17;;
4202;SDS011;2115;51.038;7.006;2023-02-10T08:51:51;124.23;;;45.07;;
4202;SDS011;2115;51.038;7.006;2023-02-10T08:54:17;42.43;;;16.77;;
4202;SDS011;2115;51.038;7.006;2023-02-10T08:56:43;25.80;;;11.30;;
4202;SDS011;2115;51.038;7.006;2023-02-10T08:59:08;253.50;;;82.27;;
4202;SDS011;2115;51.038;7.006;2023-02-10T09:01:34;294.10;;;100.13;;
4202;SDS011;2115;51.038;7.006;2023-02-10T09:03:59;296.87;;;100.97;;
4202;SDS011;2115;51.038;7.006;2023-02-10T09:06:26;239.97;;;80.33;;
4202;SDS011;2115;51.038;7.006;2023-02-10T09:08:53;312.47;;;109.17;;
4202;SDS011;2115;51.038;7.006;2023-02-10T09:11:19;116.53;;;37.90;;
4202;SDS011;2115;51.038;7.006;2023-02-10T09:13:47;312.43;;;102.60;;
4202;SDS011;2115;51.038;7.006;2023-02-10T09:16:13;280.43;;;91.37;;
4202;SDS011;2115;51.038;7.006;2023-02-10T09:18:38;209.37;;;70.40;;
4202;SDS011;2115;51.038;7.006;2023-02-10T09:21:03;115.90;;;38.80;;
4202;SDS011;2115;51.038;7.006;2023-02-10T09:23:29;116.97;;;39.27;;
4202;SDS011;2115;51.038;7.006;2023-02-10T09:25:58;45.30;;;14.77;;
4202;SDS011;2115;51.038;7.006;2023-02-10T09:28:25;326.43;;;109.10;;
4202;SDS011;2115;51.038;7.006;2023-02-10T09:30:51;280.80;;;89.93;;
4202;SDS011;2115;51.038;7.006;2023-02-10T09:33:16;267.60;;;91.70;;
4202;SDS011;2115;51.038;7.006;2023-02-10T09:35:42;275.60;;;89.17;;
4202;SDS011;2115;51.038;7.006;2023-02-10T09:38:08;45.53;;;13.83;;
4202;SDS011;2115;51.038;7.006;2023-02-10T09:40:37;294.00;;;97.93;;
4202;SDS011;2115;51.038;7.006;2023-02-10T09:46:01;293.73;;;100.03;;
4202;SDS011;2115;51.038;7.006;2023-02-10T09:51:37;136.50;;;49.47;;
4202;SDS011;2115;51.038;7.006;2023-02-10T09:54:08;271.73;;;100.73;;
4202;SDS011;2115;51.038;7.006;2023-02-10T09:56:34;122.20;;;43.67;;
4202;SDS011;2115;51.038;7.006;2023-02-10T09:59:00;331.40;;;107.13;;
4202;SDS011;2115;51.038;7.006;2023-02-10T10:01:40;79.47;;;32.00;;
4202;SDS011;2115;51.038;7.006;2023-02-10T10:04:08;328.90;;;110.37;;
4202;SDS011;2115;51.038;7.006;2023-02-10T10:06:38;143.17;;;44.43;;
4202;SDS011;2115;51.038;7.006;2023-02-10T10:17:01;13.47;;;4.83;;
4202;SDS011;2115;51.038;7.006;2023-02-10T10:22:18;360.73;;;103.83;;
4202;SDS011;2115;51.038;7.006;2023-02-10T10:24:55;133.77;;;39.20;;
4202;SDS011;2115;51.038;7.006;2023-02-10T10:27:32;142.43;;;41.53;;
4202;SDS011;2115;51.038;7.006;2023-02-10T10:30:07;311.67;;;90.93;;
4202;SDS011;2115;51.038;7.006;2023-02-10T10:32:44;152.60;;;44.13;;
4202;SDS011;2115;51.038;7.006;2023-02-10T10:35:56;102.30;;;29.43;;
4202;SDS011;2115;51.038;7.006;2023-02-10T10:38:17;269.43;;;79.80;;
4202;SDS011;2115;51.038;7.006;2023-02-10T10:40:51;382.97;;;108.30;;
4202;SDS011;2115;51.038;7.006;2023-02-10T10:43:21;392.03;;;105.83;;
4202;SDS011;2115;51.038;7.006;2023-02-10T10:45:53;457.83;;;131.07;;
4202;SDS011;2115;51.038;7.006;2023-02-10T10:48:22;456.97;;;126.97;;
4202;SDS011;2115;51.038;7.006;2023-02-10T10:50:52;182.70;;;50.77;;
4202;SDS011;2115;51.038;7.006;2023-02-10T10:53:22;459.97;;;132.87;;
4202;SDS011;2115;51.038;7.006;2023-02-10T10:55:58;374.20;;;105.80;;
4202;SDS011;2115;51.038;7.006;2023-02-10T10:58:35;426.80;;;120.80;;
4202;SDS011;2115;51.038;7.006;2023-02-10T11:01:03;456.77;;;128.63;;
4202;SDS011;2115;51.038;7.006;2023-02-10T11:03:29;646.63;;;287.43;;
4202;SDS011;2115;51.038;7.006;2023-02-10T11:05:57;758.40;;;510.27;;
4202;SDS011;2115;51.038;7.006;2023-02-10T11:11:07;705.87;;;182.13;;
4202;SDS011;2115;51.038;7.006;2023-02-10T11:13:35;658.10;;;194.60;;
4202;SDS011;2115;51.038;7.006;2023-02-10T11:16:11;662.30;;;208.20;;
4202;SDS011;2115;51.038;7.006;2023-02-10T11:18:49;662.83;;;228.97;;
4202;SDS011;2115;51.038;7.006;2023-02-10T11:21:16;654.20;;;220.07;;
4202;SDS011;2115;51.038;7.006;2023-02-10T11:23:48;665.63;;;184.53;;
4202;SDS011;2115;51.038;7.006;2023-02-10T11:26:22;725.00;;;198.13;;
4202;SDS011;2115;51.038;7.006;2023-02-10T11:28:50;715.60;;;198.47;;
4202;SDS011;2115;51.038;7.006;2023-02-10T11:33:50;788.40;;;546.33;;
4202;SDS011;2115;51.038;7.006;2023-02-10T11:36:27;806.03;;;610.27;;
4202;SDS011;2115;51.038;7.006;2023-02-10T11:38:59;736.60;;;388.40;;
4202;SDS011;2115;51.038;7.006;2023-02-10T11:41:29;757.10;;;394.13;;
4202;SDS011;2115;51.038;7.006;2023-02-10T11:43:55;765.53;;;402.33;;
4202;SDS011;2115;51.038;7.006;2023-02-10T11:51:20;765.70;;;534.30;;
4202;SDS011;2115;51.038;7.006;2023-02-10T11:53:45;796.93;;;541.80;;
4202;SDS011;2115;51.038;7.006;2023-02-10T12:08:27;470.33;;;125.80;;
4202;SDS011;2115;51.038;7.006;2023-02-10T12:19:10;393.07;;;104.47;;
4202;SDS011;2115;51.038;7.006;2023-02-10T12:22:03;392.13;;;101.53;;
4202;SDS011;2115;51.038;7.006;2023-02-10T12:33:14;470.27;;;134.63;;
4202;SDS011;2115;51.038;7.006;2023-02-10T12:38:51;505.27;;;142.30;;
4202;SDS011;2115;51.038;7.006;2023-02-10T12:41:32;552.83;;;159.23;;
4202;SDS011;2115;51.038;7.006;2023-02-10T12:52:53;463.90;;;134.87;;
4202;SDS011;2115;51.038;7.006;2023-02-10T12:55:22;515.93;;;149.10;;
4202;SDS011;2115;51.038;7.006;2023-02-10T12:58:24;598.17;;;178.20;;
4202;SDS011;2115;51.038;7.006;2023-02-10T13:03:37;572.10;;;168.70;;
4202;SDS011;2115;51.038;7.006;2023-02-10T13:09:28;578.03;;;170.33;;
4202;SDS011;2115;51.038;7.006;2023-02-10T13:14:33;556.43;;;175.60;;
4202;SDS011;2115;51.038;7.006;2023-02-10T13:16:59;750.13;;;385.43;;
4202;SDS011;2115;51.038;7.006;2023-02-10T13:19:27;666.20;;;186.17;;
4202;SDS011;2115;51.038;7.006;2023-02-10T13:22:01;655.03;;;184.37;;
4202;SDS011;2115;51.038;7.006;2023-02-10T13:24:33;668.43;;;186.57;;
4202;SDS011;2115;51.038;7.006;2023-02-10T13:27:23;524.77;;;144.97;;
4202;SDS011;2115;51.038;7.006;2023-02-10T13:35:50;687.00;;;197.13;;
4202;SDS011;2115;51.038;7.006;2023-02-10T13:38:19;735.97;;;209.50;;
4202;SDS011;2115;51.038;7.006;2023-02-10T13:40:48;571.13;;;174.30;;
4202;SDS011;2115;51.038;7.006;2023-02-10T13:45:53;648.57;;;186.37;;
4202;SDS011;2115;51.038;7.006;2023-02-10T13:48:21;658.33;;;175.47;;
4202;SDS011;2115;51.038;7.006;2023-02-10T13:50:59;566.13;;;195.90;;
4202;SDS011;2115;51.038;7.006;2023-02-10T13:53:27;618.47;;;170.33;;
4202;SDS011;2115;51.038;7.006;2023-02-10T13:56:02;574.23;;;170.97;;
4202;SDS011;2115;51.038;7.006;2023-02-10T13:58:35;521.83;;;169.13;;
4202;SDS011;2115;51.038;7.006;2023-02-10T14:01:00;427.70;;;125.67;;
4202;SDS011;2115;51.038;7.006;2023-02-10T14:03:27;533.47;;;194.27;;
4202;SDS011;2115;51.038;7.006;2023-02-10T14:08:28;472.17;;;131.20;;
4202;SDS011;2115;51.038;7.006;2023-02-10T14:11:17;596.37;;;165.77;;
4202;SDS011;2115;51.038;7.006;2023-02-10T14:13:42;573.20;;;165.87;;
4202;SDS011;2115;51.038;7.006;2023-02-10T14:21:09;33.87;;;15.57;;
4202;SDS011;2115;51.038;7.006;2023-02-10T14:23:39;32.10;;;13.00;;
4202;SDS011;2115;51.038;7.006;2023-02-10T14:28:50;27.13;;;13.77;;
4202;SDS011;2115;51.038;7.006;2023-02-10T14:31:20;26.73;;;13.33;;
4202;SDS011;2115;51.038;7.006;2023-02-10T14:33:54;31.37;;;14.57;;
4202;SDS011;2115;51.038;7.006;2023-02-10T14:36:24;46.67;;;10.47;;
4202;SDS011;2115;51.038;7.006;2023-02-10T14:38:57;262.07;;;66.67;;
4202;SDS011;2115;51.038;7.006;2023-02-10T14:41:28;307.90;;;79.63;;
4202;SDS011;2115;51.038;7.006;2023-02-10T14:43:55;154.97;;;41.17;;
4202;SDS011;2115;51.038;7.006;2023-02-10T14:46:25;255.77;;;69.90;;
4202;SDS011;2115;51.038;7.006;2023-02-10T14:48:59;391.40;;;103.23;;
4202;SDS011;2115;51.038;7.006;2023-02-10T14:51:27;398.50;;;112.00;;
4202;SDS011;2115;51.038;7.006;2023-02-10T14:53:54;111.37;;;33.60;;
4202;SDS011;2115;51.038;7.006;2023-02-10T14:56:22;441.03;;;119.67;;
4202;SDS011;2115;51.038;7.006;2023-02-10T14:58:51;410.00;;;105.67;;
4202;SDS011;2115;51.038;7.006;2023-02-10T15:01:27;281.10;;;73.63;;
4202;SDS011;2115;51.038;7.006;2023-02-10T15:03:55;417.10;;;114.17;;
4202;SDS011;2115;51.038;7.006;2023-02-10T15:06:23;288.67;;;72.37;;
4202;SDS011;2115;51.038;7.006;2023-02-10T15:11:45;364.80;;;95.73;;
4202;SDS011;2115;51.038;7.006;2023-02-10T15:15:19;382.33;;;110.40;;
4202;SDS011;2115;51.038;7.006;2023-02-10T15:17:23;141.00;;;38.73;;
4202;SDS011;2115;51.038;7.006;2023-02-10T15:19:54;155.67;;;46.67;;
4202;SDS011;2115;51.038;7.006;2023-02-10T15:22:34;98.70;;;26.60;;
4202;SDS011;2115;51.038;7.006;2023-02-10T15:27:47;53.77;;;17.47;;
4202;SDS011;2115;51.038;7.006;2023-02-10T15:30:20;129.60;;;38.40;;
4202;SDS011;2115;51.038;7.006;2023-02-10T15:32:52;145.23;;;46.13;;
4202;SDS011;2115;51.038;7.006;2023-02-10T15:35:21;335.50;;;101.40;;
4202;SDS011;2115;51.038;7.006;2023-02-10T15:37:51;345.77;;;104.43;;
4202;SDS011;2115;51.038;7.006;2023-02-10T15:42:54;118.60;;;35.20;;
4202;SDS011;2115;51.038;7.006;2023-02-10T15:45:30;10.27;;;3.97;;
4202;SDS011;2115;51.038;7.006;2023-02-10T15:48:00;329.73;;;99.97;;
4202;SDS011;2115;51.038;7.006;2023-02-10T15:50:34;338.13;;;103.93;;
4202;SDS011;2115;51.038;7.006;2023-02-10T15:52:59;66.73;;;21.53;;
4202;SDS011;2115;51.038;7.006;2023-02-10T15:55:30;119.80;;;35.87;;
4202;SDS011;2115;51.038;7.006;2023-02-10T15:57:57;284.13;;;86.00;;
4202;SDS011;2115;51.038;7.006;2023-02-10T16:02:50;141.10;;;50.50;;
4202;SDS011;2115;51.038;7.006;2023-02-10T16:05:16;352.57;;;108.57;;
4202;SDS011;2115;51.038;7.006;2023-02-10T16:07:41;147.07;;;46.80;;
4202;SDS011;2115;51.038;7.006;2023-02-10T16:10:20;135.40;;;43.93;;
4202;SDS011;2115;51.038;7.006;2023-02-10T16:12:50;134.17;;;41.33;;
4202;SDS011;2115;51.038;7.006;2023-02-10T16:15:18;126.70;;;42.33;;
4202;SDS011;2115;51.038;7.006;2023-02-10T16:17:45;345.63;;;107.90;;
4202;SDS011;2115;51.038;7.006;2023-02-10T16:20:15;325.67;;;99.37;;
4202;SDS011;2115;51.038;7.006;2023-02-10T16:22:45;97.83;;;23.07;;
4202;SDS011;2115;51.038;7.006;2023-02-10T16:25:11;281.03;;;88.80;;
4202;SDS011;2115;51.038;7.006;2023-02-10T16:27:36;141.33;;;45.13;;
4202;SDS011;2115;51.038;7.006;2023-02-10T16:30:03;101.63;;;32.37;;
4202;SDS011;2115;51.038;7.006;2023-02-10T16:32:29;290.90;;;83.87;;
4202;SDS011;2115;51.038;7.006;2023-02-10T16:34:55;115.20;;;39.40;;
4202;SDS011;2115;51.038;7.006;2023-02-10T16:37:20;102.73;;;31.87;;
4202;SDS011;2115;51.038;7.006;2023-02-10T16:39:47;97.03;;;30.17;;
4202;SDS011;2115;51.038;7.006;2023-02-10T16:42:14;57.47;;;15.93;;
4202;SDS011;2115;51.038;7.006;2023-02-10T16:44:39;338.27;;;112.60;;
4202;SDS011;2115;51.038;7.006;2023-02-10T16:47:04;205.73;;;60.37;;
4202;SDS011;2115;51.038;7.006;2023-02-10T16:49:30;21.07;;;5.57;;
4202;SDS011;2115;51.038;7.006;2023-02-10T16:51:55;53.53;;;15.33;;
4202;SDS011;2115;51.038;7.006;2023-02-10T16:54:21;103.83;;;34.93;;
4202;SDS011;2115;51.038;7.006;2023-02-10T16:56:47;243.90;;;75.60;;